Latest Weather Observations for Amberley

IDQ60901

Issued at 8:21 pm EST Monday 16 September 2019 (issued every 10 minutes, with the page automatically refreshed every 10 minutes)

About weather observations | Map of Brisbane area stations | Latest observations for Brisbane area | Other Formats
Station Details ID: 040004 Name: AMBERLEY AMO Lat: -27.63 Lon: 152.71 Height: 24.2 m
Data from the previous 72 hours. | See also: Recent months at Amberley
Date/Time
EST
Temp
°C
App
Temp
°C
Dew
Point
°C
Rel
Hum
%
Delta-T
°C
Wind Press
QNH
hPa
Press
MSL
hPa
Rain since
9am
mm
Dir  Spd
km/h
Gust
km/h
Spd
kts
Gust
kts
16/08:00pm 18.4 17.8 13.5 73 2.8 ESE 9 13 5 7 1016.9 1016.9 0.0
16/07:30pm 19.7 18.4 13.6 68 3.5 E 13 15 7 8 1016.5 1016.5 0.0
16/07:00pm 20.7 19.4 13.6 64 4.1 ENE 13 17 7 9 1016.2 1016.2 0.0
16/06:30pm 21.8 19.8 13.9 61 4.6 ENE 17 20 9 11 1016.1 1016.1 0.0
16/06:00pm 22.8 20.3 14.1 58 5.1 ENE 20 26 11 14 1015.9 1015.9 0.0
16/05:30pm 24.5 21.1 13.7 51 6.3 ENE 24 30 13 16 1015.5 1015.5 0.0
16/05:00pm 26.1 22.5 13.2 44 7.5 ENE 24 32 13 17 1015.3 1015.3 0.0
16/04:30pm 27.1 22.9 12.3 39 8.6 ENE 26 33 14 18 1015.1 1015.0 0.0
16/04:00pm 27.2 22.9 13.2 42 8.2 NE 28 35 15 19 1015.3 1015.3 0.0
16/03:30pm 27.6 22.8 11.6 37 9.2 ENE 28 35 15 19 1015.4 1015.4 0.0
16/03:00pm 29.6 25.5 11.6 33 10.4 ENE 24 33 13 18 1015.8 1015.8 0.0
16/02:30pm 30.4 26.5 3.4 18 13.7 N 13 22 7 12 1016.1 1016.1 0.0
16/02:00pm 30.2 26.3 5.5 21 13.0 N 15 28 8 15 1016.6 1016.6 0.0
16/01:30pm 29.9 26.2 6.5 23 12.5 N 15 28 8 15 1017.2 1017.2 0.0
16/01:00pm 29.9 27.4 8.3 26 11.9 WNW 11 24 6 13 1017.9 1017.9 0.0
16/12:30pm 28.7 26.0 8.9 29 10.9 NW 13 20 7 11 1018.7 1018.7 0.0
16/12:00pm 27.5 24.6 9.8 33 9.8 NW 15 30 8 16 1019.2 1019.2 0.0
16/11:30am 26.5 23.6 9.8 35 9.3 NNW 15 24 8 13 1020.2 1020.2 0.0
16/11:00am 26.2 23.0 10.0 36 9.0 NNW 17 28 9 15 1020.8 1020.8 0.0
16/10:30am 24.9 21.7 10.0 39 8.2 NNW 17 30 9 16 1021.4 1021.4 0.0
16/10:00am 23.3 20.1 10.0 43 7.2 NNW 17 26 9 14 1022.1 1022.1 0.0
16/09:30am 21.7 19.8 11.7 53 5.6 NNW 13 24 7 13 1022.4 1022.4 0.0
16/09:00am 19.3 18.4 10.8 58 4.6 NW 6 13 3 7 1022.9 1022.9 0.0
16/08:30am 18.0 17.5 10.6 62 4.0 SSW 4 9 2 5 1023.2 1023.2 0.0
16/08:00am 15.5 14.3 9.6 68 3.0 SSW 6 7 3 4 1023.3 1023.3 0.0
16/07:30am 13.4 12.1 9.1 75 2.2 E 6 7 3 4 1023.4 1023.4 0.0
16/07:00am 10.8 10.1 8.7 87 1.0 E 2 7 1 4 1023.2 1023.2 0.0
16/06:30am 8.1 7.5 7.2 94 0.4 CALM 0 0 0 0 1023.0 1023.0 0.0
16/06:00am 6.8 5.8 5.6 92 0.5 CALM 0 0 0 0 1022.6 1022.6 0.0
16/05:30am 7.3 6.4 5.9 91 0.6 CALM 0 0 0 0 1022.4 1022.4 0.0
16/05:00am 7.5 6.7 6.3 92 0.5 CALM 0 0 0 0 1022.4 1022.4 0.0
16/04:30am 7.8 6.3 6.6 92 0.6 E 4 7 2 4 1022.2 1022.2 0.0
16/04:00am 7.3 6.3 5.6 89 0.8 CALM 0 0 0 0 1021.9 1021.9 0.0
16/03:30am 8.4 7.6 6.5 88 0.9 CALM 0 0 0 0 1021.9 1021.9 0.0
16/03:00am 8.8 7.7 7.1 89 0.8 E 2 9 1 5 1022.0 1022.0 0.0
16/02:30am 8.7 7.9 6.7 87 0.9 CALM 0 0 0 0 1022.0 1022.0 0.0
16/02:00am 8.8 8.1 6.8 87 0.9 CALM 0 0 0 0 1022.4 1022.4 0.0
16/01:30am 10.2 9.7 8.0 86 1.1 CALM 0 4 0 2 1022.8 1022.8 0.0
16/01:00am 8.8 7.6 6.4 85 1.1 E 2 11 1 6 1023.0 1023.0 0.0
16/12:30am 10.5 10.0 7.9 84 1.3 CALM 0 0 0 0 1023.1 1023.1 0.0
16/12:00am 11.0 10.5 7.7 80 1.6 CALM 0 0 0 0 1023.2 1023.2 0.0
 
Date/Time
EST
Temp
°C
App
Temp
°C
Dew
Point
°C
Rel
Hum
%
Delta-T
°C
Wind Press
QNH
hPa
Press
MSL
hPa
Rain since
9am
mm
Dir  Spd
km/h
Gust
km/h
Spd
kts
Gust
kts
15/11:30pm 11.5 10.9 7.6 77 1.9 CALM 0 0 0 0 1023.2 1023.2 0.0
15/11:00pm 11.6 11.2 8.3 80 1.6 CALM 0 0 0 0 1023.4 1023.4 0.0
15/10:30pm 11.6 10.0 8.6 82 1.5 E 7 9 4 5 1023.4 1023.4 0.0
15/10:00pm 13.3 13.2 9.5 78 1.9 CALM 0 0 0 0 1023.4 1023.4 0.0
15/09:30pm 12.5 11.6 9.3 81 1.6 E 4 7 2 4 1023.3 1023.3 0.0
15/09:00pm 16.0 14.4 11.6 75 2.4 E 11 13 6 7 1023.4 1023.4 0.0
15/08:30pm 16.9 15.7 11.6 71 2.9 E 9 11 5 6 1023.4 1023.4 0.0
15/08:00pm 17.8 16.0 12.0 69 3.2 ENE 13 17 7 9 1023.2 1023.2 0.0
15/07:30pm 18.5 15.5 11.8 65 3.7 ENE 19 24 10 13 1023.0 1023.0 0.0
15/07:00pm 19.1 14.6 10.1 56 4.8 ENE 24 30 13 16 1022.5 1022.5 0.0
15/06:30pm 19.7 15.2 8.4 48 5.9 ENE 22 30 12 16 1022.3 1022.3 0.0
15/06:00pm 20.5 16.0 8.5 46 6.3 ENE 22 32 12 17 1022.0 1022.0 0.0
15/05:30pm 21.3 15.9 7.9 42 7.0 ENE 26 33 14 18 1021.7 1021.7 0.0
15/05:00pm 22.6 16.8 8.0 39 7.6 ENE 28 35 15 19 1021.4 1021.4 0.0
15/04:30pm 23.6 18.2 9.6 41 7.6 ENE 28 35 15 19 1021.1 1021.1 0.0
15/04:00pm 24.4 18.8 8.8 37 8.4 ENE 28 39 15 21 1020.7 1020.7 0.0
15/03:30pm 25.1 18.4 5.8 29 9.9 ENE 30 37 16 20 1020.5 1020.5 0.0
15/03:00pm 25.6 20.0 7.2 31 9.7 E 26 35 14 19 1020.6 1020.6 0.0
15/02:30pm 25.6 19.9 6.8 30 9.8 E 26 35 14 19 1020.9 1020.9 0.0
15/02:00pm 26.6 21.3 8.6 32 9.7 ENE 26 35 14 19 1021.1 1021.1 0.0
15/01:30pm 26.2 21.7 8.7 33 9.5 E 22 30 12 16 1021.4 1021.4 0.0
15/01:00pm 25.6 21.5 8.6 34 9.2 ENE 20 39 11 21 1022.0 1022.0 0.0
15/12:30pm 25.1 22.1 9.4 37 8.6 E 15 30 8 16 1022.6 1022.6 0.0
15/12:00pm 24.9 21.7 10.0 39 8.2 E 17 30 9 16 1023.2 1023.2 0.0
15/11:30am 24.1 21.3 10.0 41 7.7 E 15 26 8 14 1023.6 1023.6 0.0
15/11:00am 23.4 21.7 11.1 46 6.8 NNE 11 20 6 11 1024.1 1024.1 0.0
15/10:30am 22.4 20.3 11.2 49 6.2 ENE 13 19 7 10 1024.5 1024.5 0.0
15/10:00am 21.5 19.3 10.9 51 5.8 ENE 13 19 7 10 1024.8 1024.8 0.0
15/09:30am 20.6 18.7 10.4 52 5.5 ENE 11 19 6 10 1025.3 1025.3 0.0
15/09:00am 18.5 17.7 8.2 51 5.3 SSW 2 9 1 5 1025.7 1025.7 0.0
15/08:30am 16.6 14.8 7.3 54 4.6 S 6 9 3 5 1025.6 1025.6 0.0
15/08:00am 14.4 13.0 5.7 56 4.1 E 2 7 1 4 1025.6 1025.6 0.0
15/07:30am 12.0 10.2 5.6 65 3.0 E 4 7 2 4 1025.5 1025.5 0.0
15/07:00am 9.0 7.9 5.2 77 1.7 CALM 0 0 0 0 1025.1 1025.1 0.0
15/06:30am 7.0 5.7 4.3 83 1.2 CALM 0 0 0 0 1024.5 1024.5 0.0
15/06:00am 6.3 4.8 2.9 79 1.4 CALM 0 0 0 0 1024.1 1024.1 0.0
15/05:30am 6.6 5.1 3.2 79 1.4 CALM 0 0 0 0 1023.9 1023.9 0.0
15/05:00am 6.5 5.1 3.5 81 1.3 CALM 0 0 0 0 1023.7 1023.7 0.0
15/04:30am 6.9 5.6 3.9 81 1.3 CALM 0 0 0 0 1023.3 1023.3 0.0
15/04:00am 7.2 5.8 3.3 76 1.6 CALM 0 0 0 0 1023.1 1023.1 0.0
15/03:30am 7.6 4.8 2.9 72 2.0 E 7 9 4 5 1023.0 1023.0 0.0
15/03:00am 8.0 6.8 4.4 78 1.6 CALM 0 0 0 0 1023.0 1023.0 0.0
15/02:30am 8.2 6.9 4.0 75 1.8 CALM 0 0 0 0 1022.9 1022.9 0.0
15/02:00am 8.5 7.2 3.9 73 2.0 CALM 0 0 0 0 1023.1 1023.1 0.0
15/01:30am 8.4 6.8 2.4 66 2.5 CALM 0 0 0 0 1023.3 1023.3 0.0
15/01:00am 10.1 8.6 4.9 70 2.3 E 2 7 1 4 1023.4 1023.4 0.0
15/12:30am 10.4 8.8 2.7 59 3.3 CALM 0 0 0 0 1023.4 1023.4 0.0
15/12:00am 11.2 9.6 2.2 54 3.8 CALM 0 0 0 0 1023.4 1023.4 0.0
 
Date/Time
EST
Temp
°C
App
Temp
°C
Dew
Point
°C
Rel
Hum
%
Delta-T
°C
Wind Press
QNH
hPa
Press
MSL
hPa
Rain since
9am
mm
Dir  Spd
km/h
Gust
km/h
Spd
kts
Gust
kts
14/11:30pm 13.2 11.0 3.6 52 4.3 E 4 7 2 4 1023.5 1023.5 0.0
14/11:00pm 14.5 13.4 5.0 53 4.4 CALM 0 0 0 0 1023.4 1023.4 0.0
14/10:30pm 14.5 11.8 3.9 49 4.8 E 7 7 4 4 1023.1 1023.1 0.0
14/10:00pm 17.0 13.4 5.0 45 5.7 ENE 13 15 7 8 1022.9 1022.9 0.0
14/09:30pm 17.0 13.7 4.3 43 6.0 ENE 11 11 6 6 1022.9 1022.9 0.0
14/09:00pm 16.8 12.6 1.7 36 6.7 E 13 17 7 9 1022.8 1022.8 0.0
14/08:30pm 18.5 14.3 1.9 33 7.5 E 13 17 7 9 1022.5 1022.5 0.0
14/08:00pm 20.0 15.2 2.8 32 8.0 E 17 26 9 14 1022.3 1022.3 0.0
14/07:30pm 20.9 16.8 6.4 39 7.3 ESE 17 22 9 12 1021.5 1021.5 0.0
14/07:02pm 21.7 13.7 8.9 44 6.8 E 41 59 22 32 1020.3 1020.3 0.0
14/07:00pm 21.9 13.5 9.1 44 6.8 E 43 59 23 32 1020.2 1020.2 0.0
14/06:54pm 22.0 14.4 10.5 48 6.3 E 41 59 22 32 1019.8 1019.8 0.0
14/06:30pm 22.9 18.2 9.3 42 7.3 ESE 24 39 13 21 1018.9 1018.9 0.0
14/06:00pm 24.2 19.4 7.4 34 8.8 E 22 26 12 14 1017.8 1017.8 0.0
14/05:30pm 27.6 23.8 -5.5 11 14.1 ENE 6 9 3 5 1017.1 1017.1 0.0
14/05:00pm 29.7 25.8 -6.5 9 15.4 WSW 6 11 3 6 1016.6 1016.6 0.0
14/04:30pm 31.1 27.0 -7.0 8 16.3 WNW 7 13 4 7 1016.5 1016.5 0.0
14/04:00pm 31.3 26.8 -6.8 8 16.3 NW 9 13 5 7 1016.6 1016.6 0.0
14/03:30pm 31.3 25.7 -6.8 8 16.4 SW 15 26 8 14 1016.7 1016.7 0.0
14/03:00pm 31.2 25.6 -6.9 8 16.3 W 15 22 8 12 1016.6 1016.6 0.0
14/02:30pm 31.7 26.8 -6.6 8 16.5 W 11 17 6 9 1016.7 1016.7 0.0
14/02:00pm 30.9 25.6 -7.1 8 16.1 SSW 13 24 7 13 1017.0 1017.0 0.0
14/01:30pm 30.9 26.6 -1.8 12 15.2 NNW 11 17 6 9 1017.7 1017.7 0.0
14/01:00pm 29.4 25.7 0.1 15 13.9 W 9 13 5 7 1018.3 1018.3 0.0
14/12:30pm 28.8 23.9 2.1 18 13.1 NW 17 26 9 14 1019.1 1019.1 0.0
14/12:00pm 27.4 23.6 3.8 22 11.8 WNW 13 22 7 12 1019.8 1019.8 0.0
14/11:30am 25.6 21.0 5.8 28 10.2 NW 19 28 10 15 1020.5 1020.5 0.0
14/11:00am 25.6 21.5 6.3 29 10.0 NW 17 28 9 15 1021.1 1021.1 0.0
14/10:30am 24.1 20.0 7.7 35 8.6 NNW 19 28 10 15 1021.6 1021.6 0.0
14/10:00am 22.5 20.1 10.0 45 6.8 NW 13 19 7 10 1022.2 1022.2 0.0
14/09:30am 20.9 19.4 10.4 51 5.7 WNW 9 15 5 8 1022.7 1022.7 0.0
14/09:00am 19.1 17.4 9.9 55 4.9 WNW 9 13 5 7 1023.2 1023.2 0.0
14/08:30am 17.5 15.9 8.6 56 4.6 WNW 7 11 4 6 1023.2 1023.2 0.0
14/08:00am 14.7 12.5 6.3 57 4.0 WNW 7 9 4 5 1023.1 1023.1 0.0
14/07:30am 12.2 11.2 5.4 63 3.2 CALM 0 0 0 0 1023.0 1023.0 0.0
14/07:00am 9.1 7.4 4.1 71 2.2 NE 2 7 1 4 1023.1 1023.1 0.0
14/06:30am 5.8 4.2 2.6 80 1.3 CALM 0 0 0 0 1022.9 1022.9 0.0
14/06:00am 5.6 4.3 4.1 90 0.6 CALM 0 0 0 0 1022.6 1022.6 0.0
14/05:30am 5.9 4.6 4.2 89 0.7 CALM 0 0 0 0 1022.3 1022.3 0.0
14/05:00am 5.9 4.3 2.5 79 1.4 CALM 0 0 0 0 1022.4 1022.4 0.0
14/04:30am 6.6 5.3 3.9 83 1.2 CALM 0 0 0 0 1021.9 1021.9 0.0
14/04:00am 6.3 5.0 4.0 85 1.0 CALM 0 0 0 0 1021.9 1021.9 0.0
14/03:30am 6.6 4.2 2.3 74 1.8 NE 4 7 2 4 1021.8 1021.8 0.0
14/03:00am 6.9 5.6 4.0 82 1.2 CALM 0 0 0 0 1021.7 1021.7 0.0
14/02:30am 7.1 4.5 4.1 81 1.3 NE 7 9 4 5 1021.9 1021.9 0.0
14/02:00am 7.2 5.6 2.5 72 1.9 CALM 0 0 0 0 1022.0 1022.0 0.0
14/01:30am 8.0 6.8 4.4 78 1.6 CALM 0 0 0 0 1022.4 1022.4 0.0
14/01:00am 9.0 6.5 3.8 70 2.3 NE 6 7 3 4 1022.7 1022.7 0.0
14/12:30am 9.0 6.4 3.4 68 2.4 NE 6 7 3 4 1022.8 1022.8 0.0
14/12:00am 9.7 6.8 4.7 71 2.2 NE 9 9 5 5 1022.9 1022.9 0.0
 
Date/Time
EST
Temp
°C
App
Temp
°C
Dew
Point
°C
Rel
Hum
%
Delta-T
°C
Wind Press
QNH
hPa
Press
MSL
hPa
Rain since
9am
mm
Dir  Spd
km/h
Gust
km/h
Spd
kts
Gust
kts
13/11:30pm 10.4 9.1 4.1 65 2.8 CALM 0 0 0 0 1022.9 1022.9 0.0
13/11:00pm 11.5 10.3 4.5 62 3.1 CALM 0 0 0 0 1022.8 1022.8 0.0
13/10:30pm 12.7 11.5 4.7 58 3.7 CALM 0 0 0 0 1022.7 1022.7 0.0
13/10:00pm 13.8 12.9 6.2 60 3.6 CALM 0 0 0 0 1022.7 1022.7 0.0
13/09:30pm 15.4 14.6 6.7 56 4.3 CALM 0 0 0 0 1022.3 1022.3 0.0
13/09:00pm 16.9 16.1 6.7 51 5.0 CALM 0 0 0 0 1022.2 1022.2 0.0
13/08:30pm 18.1 17.3 6.3 46 5.8 CALM 0 6 0 3 1022.0 1022.0 0.0

Latest Capital City Observations: Canberra | Sydney | Melbourne | Brisbane | Adelaide | Perth | Hobart | Darwin

Other formats

Comma delimited format used in spreadsheet applications
http://www.bom.gov.au/fwo/IDQ60901/IDQ60901.94568.axf

JavaScript Object Notation format (JSON) in row-major order
http://www.bom.gov.au/fwo/IDQ60901/IDQ60901.94568.json

Data quality

Most of these data are generated automatically and are frequently updated. Quality checks on data are not normally performed. It is possible for incorrect values to appear. Refer to information at About Latest Weather Observations and please check the disclaimer before using these data.